sensor_id;sensor_type;location;lat;lon;timestamp;P1;durP1;ratioP1;P2;durP2;ratioP2
84379;SDS011;74571;52.514;13.468;2023-12-07T00:01:14;21.00;;;9.30;;
84379;SDS011;74571;52.514;13.468;2023-12-07T00:03:39;16.87;;;8.77;;
84379;SDS011;74571;52.514;13.468;2023-12-07T00:06:04;17.77;;;8.83;;
84379;SDS011;74571;52.514;13.468;2023-12-07T00:08:30;18.80;;;8.70;;
84379;SDS011;74571;52.514;13.468;2023-12-07T00:10:55;18.80;;;8.47;;
84379;SDS011;74571;52.514;13.468;2023-12-07T00:13:20;17.53;;;9.17;;
84379;SDS011;74571;52.514;13.468;2023-12-07T00:15:46;19.73;;;9.15;;
84379;SDS011;74571;52.514;13.468;2023-12-07T00:18:11;19.43;;;9.57;;
84379;SDS011;74571;52.514;13.468;2023-12-07T00:20:36;22.53;;;10.30;;
84379;SDS011;74571;52.514;13.468;2023-12-07T00:23:02;20.07;;;9.37;;
84379;SDS011;74571;52.514;13.468;2023-12-07T00:25:28;18.35;;;9.20;;
84379;SDS011;74571;52.514;13.468;2023-12-07T00:27:53;21.23;;;9.47;;
84379;SDS011;74571;52.514;13.468;2023-12-07T00:30:18;18.73;;;9.13;;
84379;SDS011;74571;52.514;13.468;2023-12-07T00:32:43;17.70;;;8.90;;
84379;SDS011;74571;52.514;13.468;2023-12-07T00:35:09;17.63;;;9.23;;
84379;SDS011;74571;52.514;13.468;2023-12-07T00:37:35;21.90;;;9.18;;
84379;SDS011;74571;52.514;13.468;2023-12-07T00:40:00;19.03;;;9.23;;
84379;SDS011;74571;52.514;13.468;2023-12-07T00:42:26;18.83;;;8.75;;
84379;SDS011;74571;52.514;13.468;2023-12-07T00:44:52;18.73;;;8.88;;
84379;SDS011;74571;52.514;13.468;2023-12-07T00:47:17;16.80;;;8.23;;
84379;SDS011;74571;52.514;13.468;2023-12-07T00:49:42;17.87;;;8.03;;
84379;SDS011;74571;52.514;13.468;2023-12-07T00:52:08;16.83;;;8.80;;
84379;SDS011;74571;52.514;13.468;2023-12-07T00:54:33;20.17;;;9.40;;
84379;SDS011;74571;52.514;13.468;2023-12-07T00:56:59;20.63;;;9.93;;
84379;SDS011;74571;52.514;13.468;2023-12-07T00:59:24;21.43;;;9.67;;
84379;SDS011;74571;52.514;13.468;2023-12-07T01:01:50;18.23;;;8.10;;
84379;SDS011;74571;52.514;13.468;2023-12-07T01:04:15;20.50;;;8.38;;
84379;SDS011;74571;52.514;13.468;2023-12-07T01:06:41;20.52;;;9.32;;
84379;SDS011;74571;52.514;13.468;2023-12-07T01:09:06;18.17;;;8.60;;
84379;SDS011;74571;52.514;13.468;2023-12-07T01:11:31;17.30;;;8.83;;
84379;SDS011;74571;52.514;13.468;2023-12-07T01:13:56;28.17;;;12.87;;
84379;SDS011;74571;52.514;13.468;2023-12-07T01:16:22;21.13;;;10.07;;
84379;SDS011;74571;52.514;13.468;2023-12-07T01:18:47;18.80;;;8.90;;
84379;SDS011;74571;52.514;13.468;2023-12-07T01:21:12;19.47;;;9.00;;
84379;SDS011;74571;52.514;13.468;2023-12-07T01:23:37;19.00;;;9.10;;
84379;SDS011;74571;52.514;13.468;2023-12-07T01:26:03;19.50;;;8.80;;
84379;SDS011;74571;52.514;13.468;2023-12-07T01:28:28;19.10;;;8.57;;
84379;SDS011;74571;52.514;13.468;2023-12-07T01:30:54;19.20;;;8.90;;
84379;SDS011;74571;52.514;13.468;2023-12-07T01:33:19;17.25;;;8.10;;
84379;SDS011;74571;52.514;13.468;2023-12-07T01:35:45;16.15;;;8.23;;
84379;SDS011;74571;52.514;13.468;2023-12-07T01:38:10;17.47;;;9.03;;
84379;SDS011;74571;52.514;13.468;2023-12-07T01:40:35;16.17;;;8.73;;
84379;SDS011;74571;52.514;13.468;2023-12-07T01:43:00;17.87;;;8.53;;
84379;SDS011;74571;52.514;13.468;2023-12-07T01:45:25;17.80;;;8.40;;
84379;SDS011;74571;52.514;13.468;2023-12-07T01:47:51;17.83;;;8.10;;
84379;SDS011;74571;52.514;13.468;2023-12-07T01:50:19;16.42;;;8.52;;
84379;SDS011;74571;52.514;13.468;2023-12-07T01:52:48;16.50;;;8.18;;
84379;SDS011;74571;52.514;13.468;2023-12-07T01:55:16;20.38;;;9.65;;
84379;SDS011;74571;52.514;13.468;2023-12-07T01:57:43;27.48;;;13.18;;
84379;SDS011;74571;52.514;13.468;2023-12-07T02:00:10;21.30;;;10.45;;
84379;SDS011;74571;52.514;13.468;2023-12-07T02:02:36;18.45;;;8.52;;
84379;SDS011;74571;52.514;13.468;2023-12-07T02:05:02;16.92;;;9.05;;
84379;SDS011;74571;52.514;13.468;2023-12-07T02:07:28;16.98;;;8.68;;
84379;SDS011;74571;52.514;13.468;2023-12-07T02:09:55;16.15;;;8.18;;
84379;SDS011;74571;52.514;13.468;2023-12-07T02:12:22;17.95;;;8.52;;
84379;SDS011;74571;52.514;13.468;2023-12-07T02:14:48;19.80;;;9.27;;
84379;SDS011;74571;52.514;13.468;2023-12-07T02:17:18;18.93;;;9.03;;
84379;SDS011;74571;52.514;13.468;2023-12-07T02:19:53;18.02;;;8.43;;
84379;SDS011;74571;52.514;13.468;2023-12-07T02:22:27;19.55;;;8.77;;
84379;SDS011;74571;52.514;13.468;2023-12-07T02:27:34;16.48;;;8.38;;
84379;SDS011;74571;52.514;13.468;2023-12-07T02:30:04;18.83;;;8.60;;
84379;SDS011;74571;52.514;13.468;2023-12-07T02:32:31;18.58;;;8.75;;
84379;SDS011;74571;52.514;13.468;2023-12-07T02:34:56;17.80;;;8.73;;
84379;SDS011;74571;52.514;13.468;2023-12-07T02:37:21;16.80;;;8.43;;
84379;SDS011;74571;52.514;13.468;2023-12-07T02:39:54;20.15;;;8.52;;
84379;SDS011;74571;52.514;13.468;2023-12-07T02:42:22;18.70;;;8.30;;
84379;SDS011;74571;52.514;13.468;2023-12-07T02:44:51;19.63;;;9.05;;
84379;SDS011;74571;52.514;13.468;2023-12-07T02:47:17;20.08;;;9.52;;
84379;SDS011;74571;52.514;13.468;2023-12-07T02:49:43;16.33;;;8.13;;
84379;SDS011;74571;52.514;13.468;2023-12-07T02:52:08;19.00;;;8.57;;
84379;SDS011;74571;52.514;13.468;2023-12-07T02:54:34;15.73;;;7.33;;
84379;SDS011;74571;52.514;13.468;2023-12-07T02:56:59;16.53;;;8.83;;
84379;SDS011;74571;52.514;13.468;2023-12-07T02:59:24;17.43;;;8.43;;
84379;SDS011;74571;52.514;13.468;2023-12-07T03:01:49;16.30;;;8.17;;
84379;SDS011;74571;52.514;13.468;2023-12-07T03:04:15;19.33;;;8.63;;
84379;SDS011;74571;52.514;13.468;2023-12-07T03:06:40;16.40;;;8.00;;
84379;SDS011;74571;52.514;13.468;2023-12-07T03:09:05;21.93;;;9.80;;
84379;SDS011;74571;52.514;13.468;2023-12-07T03:11:31;21.10;;;9.80;;
84379;SDS011;74571;52.514;13.468;2023-12-07T03:13:56;21.10;;;9.97;;
84379;SDS011;74571;52.514;13.468;2023-12-07T03:16:21;15.17;;;7.83;;
84379;SDS011;74571;52.514;13.468;2023-12-07T03:18:46;20.93;;;9.60;;
84379;SDS011;74571;52.514;13.468;2023-12-07T03:21:12;20.10;;;8.90;;
84379;SDS011;74571;52.514;13.468;2023-12-07T03:23:37;15.63;;;8.33;;
84379;SDS011;74571;52.514;13.468;2023-12-07T03:26:02;18.67;;;9.37;;
84379;SDS011;74571;52.514;13.468;2023-12-07T03:28:27;18.27;;;8.37;;
84379;SDS011;74571;52.514;13.468;2023-12-07T03:30:53;17.53;;;8.63;;
84379;SDS011;74571;52.514;13.468;2023-12-07T03:33:18;18.83;;;8.77;;
84379;SDS011;74571;52.514;13.468;2023-12-07T03:35:43;17.70;;;8.30;;
84379;SDS011;74571;52.514;13.468;2023-12-07T03:38:08;18.43;;;8.93;;
84379;SDS011;74571;52.514;13.468;2023-12-07T03:40:34;15.43;;;7.97;;
84379;SDS011;74571;52.514;13.468;2023-12-07T03:42:59;22.37;;;9.53;;
84379;SDS011;74571;52.514;13.468;2023-12-07T03:45:24;17.60;;;8.90;;
84379;SDS011;74571;52.514;13.468;2023-12-07T03:47:49;17.37;;;8.37;;
84379;SDS011;74571;52.514;13.468;2023-12-07T03:50:15;18.60;;;9.17;;
84379;SDS011;74571;52.514;13.468;2023-12-07T03:52:40;18.10;;;9.55;;
84379;SDS011;74571;52.514;13.468;2023-12-07T03:55:05;19.80;;;9.13;;
84379;SDS011;74571;52.514;13.468;2023-12-07T03:57:31;20.92;;;9.45;;
84379;SDS011;74571;52.514;13.468;2023-12-07T03:59:56;18.60;;;9.40;;
84379;SDS011;74571;52.514;13.468;2023-12-07T04:02:21;18.63;;;8.97;;
84379;SDS011;74571;52.514;13.468;2023-12-07T04:04:47;17.27;;;8.85;;
84379;SDS011;74571;52.514;13.468;2023-12-07T04:07:12;19.70;;;9.17;;
84379;SDS011;74571;52.514;13.468;2023-12-07T04:09:38;20.43;;;9.53;;
84379;SDS011;74571;52.514;13.468;2023-12-07T04:12:03;17.43;;;8.70;;
84379;SDS011;74571;52.514;13.468;2023-12-07T04:14:28;18.27;;;8.90;;
84379;SDS011;74571;52.514;13.468;2023-12-07T04:16:54;19.07;;;9.17;;
84379;SDS011;74571;52.514;13.468;2023-12-07T04:19:19;21.37;;;9.40;;
84379;SDS011;74571;52.514;13.468;2023-12-07T04:21:44;20.57;;;9.30;;
84379;SDS011;74571;52.514;13.468;2023-12-07T04:24:09;21.53;;;9.17;;
84379;SDS011;74571;52.514;13.468;2023-12-07T04:26:35;21.87;;;10.03;;
84379;SDS011;74571;52.514;13.468;2023-12-07T04:29:00;21.73;;;9.77;;
84379;SDS011;74571;52.514;13.468;2023-12-07T04:31:25;20.43;;;9.47;;
84379;SDS011;74571;52.514;13.468;2023-12-07T04:33:50;20.83;;;9.60;;
84379;SDS011;74571;52.514;13.468;2023-12-07T04:36:16;21.23;;;9.00;;
84379;SDS011;74571;52.514;13.468;2023-12-07T04:38:41;23.00;;;10.80;;
84379;SDS011;74571;52.514;13.468;2023-12-07T04:41:07;24.33;;;10.80;;
84379;SDS011;74571;52.514;13.468;2023-12-07T04:43:32;21.60;;;9.68;;
84379;SDS011;74571;52.514;13.468;2023-12-07T04:45:58;17.27;;;8.52;;
84379;SDS011;74571;52.514;13.468;2023-12-07T04:48:23;21.10;;;9.83;;
84379;SDS011;74571;52.514;13.468;2023-12-07T04:50:49;26.17;;;10.33;;
84379;SDS011;74571;52.514;13.468;2023-12-07T04:53:14;22.27;;;11.10;;
84379;SDS011;74571;52.514;13.468;2023-12-07T04:55:39;24.43;;;10.93;;
84379;SDS011;74571;52.514;13.468;2023-12-07T04:58:04;25.27;;;10.70;;
84379;SDS011;74571;52.514;13.468;2023-12-07T05:00:30;24.90;;;10.57;;
84379;SDS011;74571;52.514;13.468;2023-12-07T05:02:55;26.20;;;10.23;;
84379;SDS011;74571;52.514;13.468;2023-12-07T05:05:20;23.60;;;10.27;;
84379;SDS011;74571;52.514;13.468;2023-12-07T05:07:46;19.63;;;9.53;;
84379;SDS011;74571;52.514;13.468;2023-12-07T05:10:11;21.33;;;9.43;;
84379;SDS011;74571;52.514;13.468;2023-12-07T05:12:36;20.55;;;9.43;;
84379;SDS011;74571;52.514;13.468;2023-12-07T05:15:02;21.33;;;10.13;;
84379;SDS011;74571;52.514;13.468;2023-12-07T05:17:29;22.67;;;9.55;;
84379;SDS011;74571;52.514;13.468;2023-12-07T05:19:54;24.97;;;10.80;;
84379;SDS011;74571;52.514;13.468;2023-12-07T05:22:19;20.70;;;9.87;;
84379;SDS011;74571;52.514;13.468;2023-12-07T05:24:46;18.42;;;8.32;;
84379;SDS011;74571;52.514;13.468;2023-12-07T05:27:11;22.70;;;9.67;;
84379;SDS011;74571;52.514;13.468;2023-12-07T05:29:36;22.23;;;8.93;;
84379;SDS011;74571;52.514;13.468;2023-12-07T05:32:02;23.73;;;9.40;;
84379;SDS011;74571;52.514;13.468;2023-12-07T05:34:27;23.87;;;9.97;;
84379;SDS011;74571;52.514;13.468;2023-12-07T05:36:52;21.73;;;9.63;;
84379;SDS011;74571;52.514;13.468;2023-12-07T05:39:18;20.63;;;9.63;;
84379;SDS011;74571;52.514;13.468;2023-12-07T05:41:43;22.40;;;9.53;;
84379;SDS011;74571;52.514;13.468;2023-12-07T05:44:08;22.27;;;9.37;;
84379;SDS011;74571;52.514;13.468;2023-12-07T05:46:35;19.43;;;8.60;;
84379;SDS011;74571;52.514;13.468;2023-12-07T05:49:01;22.10;;;9.82;;
84379;SDS011;74571;52.514;13.468;2023-12-07T05:51:26;22.47;;;9.83;;
84379;SDS011;74571;52.514;13.468;2023-12-07T05:53:51;20.67;;;8.23;;
84379;SDS011;74571;52.514;13.468;2023-12-07T05:56:20;20.17;;;9.48;;
84379;SDS011;74571;52.514;13.468;2023-12-07T05:58:46;24.65;;;9.48;;
84379;SDS011;74571;52.514;13.468;2023-12-07T06:01:12;23.35;;;9.50;;
84379;SDS011;74571;52.514;13.468;2023-12-07T06:03:37;18.90;;;8.90;;
84379;SDS011;74571;52.514;13.468;2023-12-07T06:06:03;21.67;;;9.23;;
84379;SDS011;74571;52.514;13.468;2023-12-07T06:08:28;22.40;;;9.02;;
84379;SDS011;74571;52.514;13.468;2023-12-07T06:10:54;21.73;;;9.37;;
84379;SDS011;74571;52.514;13.468;2023-12-07T06:13:19;19.53;;;8.40;;
84379;SDS011;74571;52.514;13.468;2023-12-07T06:15:44;21.00;;;9.53;;
84379;SDS011;74571;52.514;13.468;2023-12-07T06:18:09;24.50;;;10.40;;
84379;SDS011;74571;52.514;13.468;2023-12-07T06:20:35;20.63;;;9.57;;
84379;SDS011;74571;52.514;13.468;2023-12-07T06:23:00;22.03;;;9.20;;
84379;SDS011;74571;52.514;13.468;2023-12-07T06:25:27;22.85;;;10.32;;
84379;SDS011;74571;52.514;13.468;2023-12-07T06:27:52;22.27;;;9.57;;
84379;SDS011;74571;52.514;13.468;2023-12-07T06:30:17;23.75;;;10.23;;
84379;SDS011;74571;52.514;13.468;2023-12-07T06:32:43;22.80;;;9.27;;
84379;SDS011;74571;52.514;13.468;2023-12-07T06:35:08;19.63;;;8.93;;
84379;SDS011;74571;52.514;13.468;2023-12-07T06:37:37;25.17;;;10.43;;
84379;SDS011;74571;52.514;13.468;2023-12-07T06:40:02;20.20;;;8.67;;
84379;SDS011;74571;52.514;13.468;2023-12-07T06:42:29;22.35;;;9.55;;
84379;SDS011;74571;52.514;13.468;2023-12-07T06:44:54;25.97;;;10.20;;
84379;SDS011;74571;52.514;13.468;2023-12-07T06:47:20;25.67;;;9.63;;
84379;SDS011;74571;52.514;13.468;2023-12-07T06:49:45;21.88;;;9.23;;
84379;SDS011;74571;52.514;13.468;2023-12-07T06:52:11;22.33;;;8.95;;
84379;SDS011;74571;52.514;13.468;2023-12-07T06:54:37;21.30;;;9.15;;
84379;SDS011;74571;52.514;13.468;2023-12-07T06:57:06;21.40;;;8.88;;
84379;SDS011;74571;52.514;13.468;2023-12-07T06:59:31;19.38;;;8.70;;
84379;SDS011;74571;52.514;13.468;2023-12-07T07:01:57;20.08;;;9.23;;
84379;SDS011;74571;52.514;13.468;2023-12-07T07:04:23;19.70;;;8.57;;
84379;SDS011;74571;52.514;13.468;2023-12-07T07:06:48;24.07;;;10.37;;
84379;SDS011;74571;52.514;13.468;2023-12-07T07:09:13;27.80;;;9.77;;
84379;SDS011;74571;52.514;13.468;2023-12-07T07:11:40;23.40;;;9.50;;
84379;SDS011;74571;52.514;13.468;2023-12-07T07:14:06;22.30;;;9.20;;
84379;SDS011;74571;52.514;13.468;2023-12-07T07:16:34;23.77;;;9.40;;
84379;SDS011;74571;52.514;13.468;2023-12-07T07:18:59;24.48;;;9.75;;
84379;SDS011;74571;52.514;13.468;2023-12-07T07:21:25;25.48;;;10.23;;
84379;SDS011;74571;52.514;13.468;2023-12-07T07:23:50;23.13;;;9.77;;
84379;SDS011;74571;52.514;13.468;2023-12-07T07:26:15;24.37;;;9.73;;
84379;SDS011;74571;52.514;13.468;2023-12-07T07:28:42;18.60;;;8.05;;
84379;SDS011;74571;52.514;13.468;2023-12-07T07:31:15;23.48;;;9.43;;
84379;SDS011;74571;52.514;13.468;2023-12-07T07:33:46;22.20;;;8.85;;
84379;SDS011;74571;52.514;13.468;2023-12-07T07:36:14;23.15;;;9.32;;
84379;SDS011;74571;52.514;13.468;2023-12-07T07:38:40;22.25;;;9.75;;
84379;SDS011;74571;52.514;13.468;2023-12-07T07:41:08;19.48;;;8.63;;
84379;SDS011;74571;52.514;13.468;2023-12-07T07:43:33;19.38;;;8.40;;
84379;SDS011;74571;52.514;13.468;2023-12-07T07:46:01;28.13;;;13.10;;
84379;SDS011;74571;52.514;13.468;2023-12-07T07:48:26;22.23;;;10.00;;
84379;SDS011;74571;52.514;13.468;2023-12-07T07:50:52;21.83;;;8.87;;
84379;SDS011;74571;52.514;13.468;2023-12-07T07:55:51;19.70;;;8.27;;
84379;SDS011;74571;52.514;13.468;2023-12-07T07:58:17;20.40;;;8.60;;
84379;SDS011;74571;52.514;13.468;2023-12-07T08:00:42;23.15;;;9.82;;
84379;SDS011;74571;52.514;13.468;2023-12-07T08:03:08;27.25;;;10.75;;
84379;SDS011;74571;52.514;13.468;2023-12-07T08:05:33;21.40;;;9.20;;
84379;SDS011;74571;52.514;13.468;2023-12-07T08:07:58;21.50;;;9.30;;
84379;SDS011;74571;52.514;13.468;2023-12-07T08:10:24;30.77;;;11.10;;
84379;SDS011;74571;52.514;13.468;2023-12-07T08:12:49;24.02;;;10.43;;
84379;SDS011;74571;52.514;13.468;2023-12-07T08:15:15;25.98;;;10.35;;
84379;SDS011;74571;52.514;13.468;2023-12-07T08:17:45;28.30;;;10.45;;
84379;SDS011;74571;52.514;13.468;2023-12-07T08:20:10;25.20;;;10.93;;
84379;SDS011;74571;52.514;13.468;2023-12-07T08:22:36;27.95;;;10.75;;
84379;SDS011;74571;52.514;13.468;2023-12-07T08:25:03;30.60;;;11.80;;
84379;SDS011;74571;52.514;13.468;2023-12-07T08:27:30;29.38;;;11.88;;
84379;SDS011;74571;52.514;13.468;2023-12-07T08:29:56;27.52;;;11.93;;
84379;SDS011;74571;52.514;13.468;2023-12-07T08:32:22;25.27;;;9.93;;
84379;SDS011;74571;52.514;13.468;2023-12-07T08:34:47;28.37;;;11.60;;
84379;SDS011;74571;52.514;13.468;2023-12-07T08:37:12;27.97;;;12.23;;
84379;SDS011;74571;52.514;13.468;2023-12-07T08:39:37;23.03;;;10.33;;
84379;SDS011;74571;52.514;13.468;2023-12-07T08:42:03;23.57;;;9.43;;
84379;SDS011;74571;52.514;13.468;2023-12-07T08:44:28;24.92;;;9.75;;
84379;SDS011;74571;52.514;13.468;2023-12-07T08:46:54;24.33;;;10.33;;
84379;SDS011;74571;52.514;13.468;2023-12-07T08:49:19;24.50;;;10.18;;
84379;SDS011;74571;52.514;13.468;2023-12-07T08:51:44;25.30;;;9.33;;
84379;SDS011;74571;52.514;13.468;2023-12-07T08:54:10;22.50;;;9.85;;
84379;SDS011;74571;52.514;13.468;2023-12-07T08:56:35;24.67;;;10.40;;
84379;SDS011;74571;52.514;13.468;2023-12-07T08:59:00;22.40;;;9.63;;
84379;SDS011;74571;52.514;13.468;2023-12-07T09:01:27;22.70;;;8.90;;
84379;SDS011;74571;52.514;13.468;2023-12-07T09:03:52;21.97;;;9.97;;
84379;SDS011;74571;52.514;13.468;2023-12-07T09:06:18;22.47;;;9.33;;
84379;SDS011;74571;52.514;13.468;2023-12-07T09:08:43;20.08;;;9.02;;
84379;SDS011;74571;52.514;13.468;2023-12-07T09:11:09;22.13;;;9.63;;
84379;SDS011;74571;52.514;13.468;2023-12-07T09:13:35;21.10;;;9.10;;
84379;SDS011;74571;52.514;13.468;2023-12-07T09:16:04;20.95;;;8.93;;
84379;SDS011;74571;52.514;13.468;2023-12-07T09:18:29;23.90;;;9.90;;
84379;SDS011;74571;52.514;13.468;2023-12-07T09:20:55;24.80;;;10.20;;
84379;SDS011;74571;52.514;13.468;2023-12-07T09:23:20;22.00;;;9.97;;
84379;SDS011;74571;52.514;13.468;2023-12-07T09:25:45;19.40;;;8.73;;
84379;SDS011;74571;52.514;13.468;2023-12-07T09:28:11;19.85;;;9.77;;
84379;SDS011;74571;52.514;13.468;2023-12-07T09:30:36;19.20;;;8.90;;
84379;SDS011;74571;52.514;13.468;2023-12-07T09:33:02;23.97;;;9.90;;
84379;SDS011;74571;52.514;13.468;2023-12-07T09:35:30;22.63;;;9.77;;
84379;SDS011;74571;52.514;13.468;2023-12-07T09:37:55;22.40;;;9.05;;
84379;SDS011;74571;52.514;13.468;2023-12-07T09:40:22;23.57;;;9.03;;
84379;SDS011;74571;52.514;13.468;2023-12-07T09:42:49;20.90;;;7.72;;
84379;SDS011;74571;52.514;13.468;2023-12-07T09:45:16;23.38;;;10.25;;
84379;SDS011;74571;52.514;13.468;2023-12-07T09:47:45;21.13;;;8.90;;
84379;SDS011;74571;52.514;13.468;2023-12-07T09:50:13;20.65;;;8.63;;
84379;SDS011;74571;52.514;13.468;2023-12-07T09:52:40;23.30;;;9.85;;
84379;SDS011;74571;52.514;13.468;2023-12-07T09:55:10;18.27;;;9.00;;
84379;SDS011;74571;52.514;13.468;2023-12-07T09:57:39;18.98;;;8.50;;
84379;SDS011;74571;52.514;13.468;2023-12-07T10:00:04;20.63;;;9.50;;
84379;SDS011;74571;52.514;13.468;2023-12-07T10:02:32;22.50;;;9.05;;
84379;SDS011;74571;52.514;13.468;2023-12-07T10:05:05;19.02;;;8.70;;
84379;SDS011;74571;52.514;13.468;2023-12-07T10:07:33;23.15;;;9.40;;
84379;SDS011;74571;52.514;13.468;2023-12-07T10:10:01;18.30;;;8.43;;
84379;SDS011;74571;52.514;13.468;2023-12-07T10:12:28;20.45;;;8.43;;
84379;SDS011;74571;52.514;13.468;2023-12-07T10:14:53;17.42;;;8.15;;
84379;SDS011;74571;52.514;13.468;2023-12-07T10:17:19;16.93;;;8.07;;
84379;SDS011;74571;52.514;13.468;2023-12-07T10:19:44;16.83;;;7.97;;
84379;SDS011;74571;52.514;13.468;2023-12-07T10:22:15;25.73;;;10.03;;
84379;SDS011;74571;52.514;13.468;2023-12-07T10:24:41;19.90;;;9.25;;
84379;SDS011;74571;52.514;13.468;2023-12-07T10:27:06;20.15;;;8.35;;
84379;SDS011;74571;52.514;13.468;2023-12-07T10:29:35;18.67;;;9.15;;
84379;SDS011;74571;52.514;13.468;2023-12-07T10:32:04;20.20;;;8.82;;
84379;SDS011;74571;52.514;13.468;2023-12-07T10:34:31;18.58;;;8.18;;
84379;SDS011;74571;52.514;13.468;2023-12-07T10:36:58;18.80;;;8.10;;
84379;SDS011;74571;52.514;13.468;2023-12-07T10:39:24;22.83;;;9.77;;
84379;SDS011;74571;52.514;13.468;2023-12-07T10:41:52;20.70;;;8.50;;
84379;SDS011;74571;52.514;13.468;2023-12-07T10:44:21;24.10;;;8.40;;
84379;SDS011;74571;52.514;13.468;2023-12-07T10:46:48;23.65;;;9.00;;
84379;SDS011;74571;52.514;13.468;2023-12-07T10:49:15;22.77;;;8.88;;
84379;SDS011;74571;52.514;13.468;2023-12-07T10:51:50;27.13;;;9.70;;
84379;SDS011;74571;52.514;13.468;2023-12-07T10:54:21;23.45;;;10.27;;
84379;SDS011;74571;52.514;13.468;2023-12-07T10:56:48;22.30;;;9.25;;
84379;SDS011;74571;52.514;13.468;2023-12-07T10:59:15;22.35;;;9.13;;
84379;SDS011;74571;52.514;13.468;2023-12-07T11:01:42;20.40;;;9.38;;
84379;SDS011;74571;52.514;13.468;2023-12-07T11:04:14;22.65;;;9.73;;
84379;SDS011;74571;52.514;13.468;2023-12-07T11:06:40;25.90;;;9.85;;
84379;SDS011;74571;52.514;13.468;2023-12-07T11:09:12;26.10;;;10.95;;
84379;SDS011;74571;52.514;13.468;2023-12-07T11:11:57;24.27;;;10.18;;
84379;SDS011;74571;52.514;13.468;2023-12-07T11:14:32;21.98;;;9.68;;
84379;SDS011;74571;52.514;13.468;2023-12-07T11:17:10;20.70;;;9.15;;
84379;SDS011;74571;52.514;13.468;2023-12-07T11:22:01;25.53;;;9.83;;
84379;SDS011;74571;52.514;13.468;2023-12-07T11:24:28;19.42;;;8.75;;
84379;SDS011;74571;52.514;13.468;2023-12-07T11:26:54;24.43;;;9.87;;
84379;SDS011;74571;52.514;13.468;2023-12-07T11:29:20;23.88;;;9.30;;
84379;SDS011;74571;52.514;13.468;2023-12-07T11:31:46;24.30;;;10.90;;
84379;SDS011;74571;52.514;13.468;2023-12-07T11:34:11;22.80;;;9.77;;
84379;SDS011;74571;52.514;13.468;2023-12-07T11:36:39;18.20;;;8.77;;
84379;SDS011;74571;52.514;13.468;2023-12-07T11:41:34;26.58;;;10.75;;
84379;SDS011;74571;52.514;13.468;2023-12-07T11:44:08;22.35;;;9.65;;
84379;SDS011;74571;52.514;13.468;2023-12-07T11:46:34;21.63;;;9.30;;
84379;SDS011;74571;52.514;13.468;2023-12-07T11:49:00;19.45;;;9.45;;
84379;SDS011;74571;52.514;13.468;2023-12-07T11:51:27;20.23;;;9.73;;
84379;SDS011;74571;52.514;13.468;2023-12-07T11:53:54;23.13;;;9.82;;
84379;SDS011;74571;52.514;13.468;2023-12-07T11:56:19;20.23;;;8.53;;
84379;SDS011;74571;52.514;13.468;2023-12-07T11:58:46;19.63;;;9.27;;
84379;SDS011;74571;52.514;13.468;2023-12-07T12:01:12;22.90;;;9.43;;
84379;SDS011;74571;52.514;13.468;2023-12-07T12:03:37;21.77;;;10.30;;
84379;SDS011;74571;52.514;13.468;2023-12-07T12:06:03;21.83;;;9.53;;
84379;SDS011;74571;52.514;13.468;2023-12-07T12:08:30;19.65;;;9.10;;
84379;SDS011;74571;52.514;13.468;2023-12-07T12:10:55;23.85;;;10.23;;
84379;SDS011;74571;52.514;13.468;2023-12-07T12:13:31;21.98;;;9.20;;
84379;SDS011;74571;52.514;13.468;2023-12-07T12:16:02;22.58;;;9.00;;
84379;SDS011;74571;52.514;13.468;2023-12-07T12:18:28;20.02;;;9.65;;
84379;SDS011;74571;52.514;13.468;2023-12-07T12:20:53;22.60;;;9.88;;
84379;SDS011;74571;52.514;13.468;2023-12-07T12:23:19;21.48;;;9.15;;
84379;SDS011;74571;52.514;13.468;2023-12-07T12:25:45;23.65;;;9.95;;
84379;SDS011;74571;52.514;13.468;2023-12-07T12:28:11;24.80;;;9.82;;
84379;SDS011;74571;52.514;13.468;2023-12-07T12:30:40;21.70;;;10.43;;
84379;SDS011;74571;52.514;13.468;2023-12-07T12:33:07;21.35;;;9.07;;
84379;SDS011;74571;52.514;13.468;2023-12-07T12:35:32;23.27;;;9.93;;
84379;SDS011;74571;52.514;13.468;2023-12-07T12:37:57;23.60;;;10.53;;
84379;SDS011;74571;52.514;13.468;2023-12-07T12:40:23;24.67;;;10.23;;
84379;SDS011;74571;52.514;13.468;2023-12-07T12:42:52;21.65;;;9.98;;
84379;SDS011;74571;52.514;13.468;2023-12-07T12:45:18;27.83;;;10.63;;
84379;SDS011;74571;52.514;13.468;2023-12-07T12:47:44;22.00;;;9.32;;
84379;SDS011;74571;52.514;13.468;2023-12-07T12:50:11;24.65;;;10.93;;
84379;SDS011;74571;52.514;13.468;2023-12-07T12:52:36;25.17;;;10.85;;
84379;SDS011;74571;52.514;13.468;2023-12-07T12:55:06;25.40;;;11.15;;
84379;SDS011;74571;52.514;13.468;2023-12-07T12:57:33;24.65;;;11.02;;
84379;SDS011;74571;52.514;13.468;2023-12-07T13:00:01;30.17;;;11.18;;
84379;SDS011;74571;52.514;13.468;2023-12-07T13:02:27;25.45;;;10.90;;
84379;SDS011;74571;52.514;13.468;2023-12-07T13:04:52;26.87;;;11.77;;
84379;SDS011;74571;52.514;13.468;2023-12-07T13:07:18;27.53;;;11.23;;
84379;SDS011;74571;52.514;13.468;2023-12-07T13:09:44;30.42;;;12.98;;
84379;SDS011;74571;52.514;13.468;2023-12-07T13:12:09;29.42;;;11.88;;
84379;SDS011;74571;52.514;13.468;2023-12-07T13:14:35;29.93;;;13.07;;
84379;SDS011;74571;52.514;13.468;2023-12-07T13:17:02;34.40;;;13.63;;
84379;SDS011;74571;52.514;13.468;2023-12-07T13:19:29;34.97;;;14.05;;
84379;SDS011;74571;52.514;13.468;2023-12-07T13:21:54;29.70;;;13.47;;
84379;SDS011;74571;52.514;13.468;2023-12-07T13:24:19;34.30;;;14.37;;
84379;SDS011;74571;52.514;13.468;2023-12-07T13:26:44;35.40;;;13.10;;
84379;SDS011;74571;52.514;13.468;2023-12-07T13:29:10;29.00;;;12.65;;
84379;SDS011;74571;52.514;13.468;2023-12-07T13:31:36;31.80;;;13.75;;
84379;SDS011;74571;52.514;13.468;2023-12-07T13:34:02;32.13;;;13.80;;
84379;SDS011;74571;52.514;13.468;2023-12-07T13:36:27;33.07;;;13.07;;
84379;SDS011;74571;52.514;13.468;2023-12-07T13:38:54;31.67;;;14.43;;
84379;SDS011;74571;52.514;13.468;2023-12-07T13:41:20;35.00;;;15.00;;
84379;SDS011;74571;52.514;13.468;2023-12-07T13:43:46;33.63;;;13.85;;
84379;SDS011;74571;52.514;13.468;2023-12-07T13:46:13;30.35;;;13.45;;
84379;SDS011;74571;52.514;13.468;2023-12-07T13:48:38;31.20;;;13.35;;
84379;SDS011;74571;52.514;13.468;2023-12-07T13:51:04;31.50;;;13.07;;
84379;SDS011;74571;52.514;13.468;2023-12-07T13:53:29;37.85;;;14.65;;
84379;SDS011;74571;52.514;13.468;2023-12-07T13:55:55;36.97;;;14.13;;
84379;SDS011;74571;52.514;13.468;2023-12-07T13:58:23;33.50;;;15.20;;
84379;SDS011;74571;52.514;13.468;2023-12-07T14:00:51;33.95;;;15.02;;
84379;SDS011;74571;52.514;13.468;2023-12-07T14:03:16;35.47;;;15.17;;
84379;SDS011;74571;52.514;13.468;2023-12-07T14:05:42;36.97;;;14.93;;
84379;SDS011;74571;52.514;13.468;2023-12-07T14:08:08;38.55;;;15.80;;
84379;SDS011;74571;52.514;13.468;2023-12-07T14:10:33;37.38;;;15.10;;
84379;SDS011;74571;52.514;13.468;2023-12-07T14:12:59;33.63;;;14.23;;
84379;SDS011;74571;52.514;13.468;2023-12-07T14:15:25;37.25;;;14.77;;
84379;SDS011;74571;52.514;13.468;2023-12-07T14:17:50;38.83;;;15.50;;
84379;SDS011;74571;52.514;13.468;2023-12-07T14:20:16;36.97;;;14.47;;
84379;SDS011;74571;52.514;13.468;2023-12-07T14:22:41;37.87;;;14.20;;